Time;durP1;ratioP1;P1;durP2;ratioP2;P2;SDS_P1;SDS_P2;PMS_P1;PMS_P2;Temp;Humidity;BMP_temperature;BMP_pressure;BME280_temperature;BME280_humidity;BME280_pressure;Samples;Min_cycle;Max_cycle;Signal;HPM_P1;HPM_P2
2023/11/26 00:00:36;;;;;;;17.40;7.75;;;;;;;0.35;64.99;98184.50;5020762;28;20041;-37
2023/11/26 00:03:06;;;;;;;19.48;7.35;;;;;;;0.37;65.17;98192.97;5024153;28;20833;-36
2023/11/26 00:05:32;;;;;;;;;;;;;;;0.46;65.34;98183.47;5031498;28;20046;-37
2023/11/26 00:07:58;;;;;;;19.50;7.25;;;;;;;0.45;65.59;98181.78;5055366;28;19928;-37
2023/11/26 00:10:23;;;;;;;15.95;6.95;;;;;;;0.54;65.42;98179.88;5024426;28;20422;-37
2023/11/26 00:12:50;;;;;;;19.33;7.38;;;;;;;0.61;65.38;98181.47;5028141;28;20513;-39
2023/11/26 00:15:16;;;;;;;22.50;8.30;;;;;;;0.33;64.98;98131.72;5013987;28;20516;-42
2023/11/26 00:17:42;;;;;;;23.00;7.75;;;;;;;0.34;64.77;98148.75;5027585;28;20048;-37
2023/11/26 00:20:09;;;;;;;18.83;8.65;;;;;;;0.45;65.12;98171.56;5027127;28;20136;-37
2023/11/26 00:22:35;;;;;;;17.63;7.00;;;;;;;0.28;65.63;98146.28;5016237;28;20068;-38
2023/11/26 00:25:01;;;;;;;18.95;7.57;;;;;;;0.47;65.72;98172.38;5026643;28;20532;-39
2023/11/26 00:27:30;;;;;;;18.02;7.70;;;;;;;0.38;65.63;98145.25;5026474;28;20045;-38
2023/11/26 00:29:56;;;;;;;22.65;7.95;;;;;;;0.55;65.37;98167.94;5027385;28;20050;-39
2023/11/26 00:32:22;;;;;;;23.63;8.38;;;;;;;0.58;65.57;98167.88;5026550;28;20048;-38
2023/11/26 00:34:49;;;;;;;24.48;8.65;;;;;;;0.57;65.58;98172.19;5028362;28;20038;-38
2023/11/26 00:37:15;;;;;;;20.15;7.47;;;;;;;0.54;65.91;98163.69;5027636;28;20068;-39
2023/11/26 00:39:41;;;;;;;23.25;8.52;;;;;;;0.56;65.72;98170.50;5026812;28;20045;-38
2023/11/26 00:42:07;;;;;;;21.30;8.25;;;;;;;0.57;65.57;98169.63;5027508;28;20041;-37
2023/11/26 00:44:33;;;;;;;19.88;8.73;;;;;;;0.51;65.77;98158.66;5025647;28;20056;-38
2023/11/26 00:46:59;;;;;;;24.33;8.30;;;;;;;0.29;65.82;98119.88;4994970;28;20042;-37
2023/11/26 00:49:25;;;;;;;16.58;8.02;;;;;;;0.61;65.69;98173.81;5057647;28;20042;-38
2023/11/26 00:51:52;;;;;;;20.73;8.73;;;;;;;0.60;65.47;98174.66;5027087;28;20129;-38
2023/11/26 00:54:19;;;;;;;17.48;8.43;;;;;;;0.63;65.87;98169.47;5026502;28;20047;-38
2023/11/26 00:56:45;;;;;;;23.90;8.40;;;;;;;0.69;65.72;98173.63;5027985;28;20099;-38
2023/11/26 00:59:12;;;;;;;19.48;7.97;;;;;;;0.50;65.84;98137.38;5014841;28;20038;-37
2023/11/26 01:01:38;;;;;;;19.45;8.00;;;;;;;0.65;65.89;98172.88;5027914;28;20543;-38
2023/11/26 01:04:04;;;;;;;22.58;8.30;;;;;;;0.68;65.71;98180.47;5027463;28;20033;-38
2023/11/26 01:06:31;;;;;;;21.27;7.80;;;;;;;0.71;65.79;98175.31;5058387;28;20433;-37
2023/11/26 01:08:57;;;;;;;19.17;8.50;;;;;;;0.50;65.68;98134.81;5041819;28;20041;-37
2023/11/26 01:11:23;;;;;;;24.30;9.15;;;;;;;0.65;65.63;98167.75;5000318;28;20110;-39
2023/11/26 01:13:49;;;;;;;19.92;8.60;;;;;;;0.63;65.95;98156.69;5023208;28;20771;-38
2023/11/26 01:16:15;;;;;;;17.80;8.60;;;;;;;0.71;66.09;98166.78;5010761;28;20413;-37
2023/11/26 01:18:41;;;;;;;24.25;8.65;;;;;;;0.54;66.44;98146.66;5008227;28;20038;-36
2023/11/26 01:21:07;;;;;;;22.38;8.25;;;;;;;0.71;66.42;98177.03;4967947;28;20041;-37
2023/11/26 01:23:34;;;;;;;22.08;8.43;;;;;;;0.50;66.27;98139.91;5036295;28;20045;-39
2023/11/26 01:26:00;;;;;;;23.48;8.90;;;;;;;0.77;66.30;98180.31;5054443;28;20159;-38
2023/11/26 01:28:26;;;;;;;20.85;7.93;;;;;;;0.73;65.99;98194.00;5024577;28;20077;-38
2023/11/26 01:30:53;;;;;;;17.08;7.60;;;;;;;0.68;66.47;98187.31;5009673;28;20672;-39
2023/11/26 01:33:19;;;;;;;22.52;8.65;;;;;;;0.72;66.48;98205.13;5026033;28;20088;-37
2023/11/26 01:35:46;;;;;;;19.25;7.93;;;;;;;0.76;66.47;98206.75;5024189;28;20042;-39
2023/11/26 01:38:13;;;;;;;20.33;8.43;;;;;;;0.65;66.30;98220.59;5008007;28;20147;-38
2023/11/26 01:40:39;;;;;;;16.33;8.23;;;;;;;0.67;66.30;98221.44;5006702;28;20124;-37
2023/11/26 01:43:06;;;;;;;19.48;7.93;;;;;;;0.47;66.56;98188.56;5026909;28;20578;-37
2023/11/26 01:45:32;;;;;;;22.02;8.85;;;;;;;0.72;66.65;98229.84;5008190;28;20065;-38
2023/11/26 01:47:59;;;;;;;17.85;7.93;;;;;;;0.61;66.24;98203.63;5041048;28;20038;-37
2023/11/26 01:50:26;;;;;;;18.15;8.25;;;;;;;0.79;66.36;98229.69;5025344;28;20053;-39
2023/11/26 01:52:55;;;;;;;20.60;7.88;;;;;;;0.81;66.40;98227.97;5024627;28;20544;-37
2023/11/26 01:55:22;;;;;;;17.80;8.63;;;;;;;0.81;66.24;98224.56;5026555;28;20484;-37
2023/11/26 01:57:48;;;;;;;22.48;8.45;;;;;;;0.78;66.29;98224.63;5057389;28;20045;-38
2023/11/26 02:00:16;;;;;;;18.25;7.55;;;;;;;0.79;66.62;98228.84;5040886;28;20050;-37
2023/11/26 02:02:43;;;;;;;;;;;;;;;0.84;66.38;98237.28;5008381;28;20044;-38
2023/11/26 02:05:11;;;;;;;16.90;7.32;;;;;;;0.79;66.34;98234.81;5026640;28;19917;-38
2023/11/26 02:07:39;;;;;;;20.50;7.78;;;;;;;0.77;66.20;98222.94;5007792;28;20053;-38
2023/11/26 02:10:06;;;;;;;21.45;7.95;;;;;;;0.70;66.56;98224.75;5026220;28;20184;-37
2023/11/26 02:12:33;;;;;;;20.03;8.03;;;;;;;0.40;66.42;98184.41;5026217;28;20116;-37
2023/11/26 02:15:01;;;;;;;25.65;7.55;;;;;;;0.54;66.67;98225.91;4983921;28;20045;-38
2023/11/26 02:17:36;;;;;;;20.77;8.23;;;;;;;0.49;66.97;98230.25;4998387;28;20088;-37
2023/11/26 02:20:04;;;;;;;21.50;8.18;;;;;;;0.52;66.86;98237.06;5019796;28;20067;-38
2023/11/26 02:22:38;;;;;;;17.50;7.40;;;;;;;0.62;67.27;98243.69;5025866;28;20509;-38
2023/11/26 02:25:05;;;;;;;18.88;8.50;;;;;;;0.61;66.93;98234.31;5009603;28;20037;-38
2023/11/26 02:27:31;;;;;;;15.88;7.13;;;;;;;0.52;66.71;98231.94;5025775;28;20060;-38
2023/11/26 02:29:57;;;;;;;25.65;9.18;;;;;;;0.53;67.27;98231.03;5025586;28;20569;-38
2023/11/26 02:32:23;;;;;;;22.08;7.97;;;;;;;0.54;67.29;98228.47;5025555;28;20376;-37
2023/11/26 02:34:50;;;;;;;17.13;7.60;;;;;;;0.56;67.03;98224.19;5010787;28;20516;-37
2023/11/26 02:37:16;;;;;;;18.02;7.70;;;;;;;0.56;66.82;98220.78;4996317;28;20056;-38
2023/11/26 02:39:43;;;;;;;20.95;8.10;;;;;;;0.53;66.92;98225.94;5025976;28;20522;-37
2023/11/26 02:42:12;;;;;;;19.35;7.30;;;;;;;0.30;67.01;98195.69;5026274;28;20513;-38
2023/11/26 02:44:38;;;;;;;22.17;8.18;;;;;;;0.50;67.12;98231.94;5023864;28;20037;-37
2023/11/26 02:47:04;;;;;;;22.65;8.57;;;;;;;0.53;66.99;98236.16;5025760;28;20045;-36
2023/11/26 02:49:30;;;;;;;16.77;7.78;;;;;;;0.26;67.36;98205.09;5025550;28;20037;-37
2023/11/26 02:51:56;;;;;;;19.17;8.40;;;;;;;0.37;67.45;98243.25;5026961;28;20161;-38
2023/11/26 02:54:22;;;;;;;21.90;8.30;;;;;;;0.36;67.27;98242.44;5029843;28;20068;-37
2023/11/26 02:56:48;;;;;;;20.30;7.70;;;;;;;0.35;67.09;98245.00;5028936;28;20048;-37
2023/11/26 02:59:15;;;;;;;21.40;9.10;;;;;;;0.23;67.70;98247.75;5010961;28;20398;-38
2023/11/26 03:01:41;;;;;;;18.95;8.02;;;;;;;0.30;67.86;98242.53;5023484;28;20049;-37
2023/11/26 03:04:08;;;;;;;21.02;8.18;;;;;;;0.28;67.71;98241.69;5029453;28;20051;-37
2023/11/26 03:06:35;;;;;;;21.00;8.25;;;;;;;0.25;67.67;98244.31;5011070;28;20060;-41
2023/11/26 03:09:10;;;;;;;21.67;8.43;;;;;;;0.11;67.46;98224.94;5029223;28;20046;-37
2023/11/26 03:14:20;;;;;;;22.75;7.72;;;;;;;0.25;67.38;98256.25;5029310;28;20045;-37
2023/11/26 03:16:46;;;;;;;21.80;8.13;;;;;;;0.26;67.74;98256.19;5023516;28;20087;-38
2023/11/26 03:19:13;;;;;;;26.40;9.23;;;;;;;0.30;67.42;98254.47;5029442;28;20046;-37
2023/11/26 03:21:47;;;;;;;20.20;8.52;;;;;;;0.21;67.45;98257.97;4994784;28;20043;-38
2023/11/26 03:24:16;;;;;;;18.65;7.90;;;;;;;0.15;67.47;98263.22;5010507;28;20075;-38
2023/11/26 03:26:42;;;;;;;19.42;8.98;;;;;;;0.12;67.53;98257.28;5027688;28;20461;-37
2023/11/26 03:29:08;;;;;;;21.42;9.00;;;;;;;0.17;67.63;98263.16;5044274;28;20041;-37
2023/11/26 03:31:34;;;;;;;21.77;8.52;;;;;;;0.15;67.74;98257.25;5029540;28;20041;-38
2023/11/26 03:34:08;;;;;;;23.88;8.27;;;;;;;0.17;67.63;98253.78;5016510;28;20041;-38
2023/11/26 03:36:36;;;;;;;25.23;9.38;;;;;;;0.16;67.55;98261.50;5026677;28;20052;-37
2023/11/26 03:39:03;;;;;;;19.17;7.75;;;;;;;0.14;67.43;98246.19;5028923;28;20067;-38
2023/11/26 03:41:30;;;;;;;20.60;9.27;;;;;;;-0.04;67.49;98224.31;5027069;28;20535;-37
2023/11/26 03:43:57;;;;;;;22.55;8.48;;;;;;;0.10;67.79;98251.38;5009192;28;20045;-37
2023/11/26 03:46:24;;;;;;;24.52;7.47;;;;;;;-0.10;67.37;98216.75;5025200;28;20041;-37
2023/11/26 03:48:51;;;;;;;20.65;8.18;;;;;;;0.03;67.48;98242.97;5011910;28;20077;-38
2023/11/26 03:51:20;;;;;;;19.23;7.63;;;;;;;0.03;67.36;98237.00;5026703;28;20425;-38
2023/11/26 03:53:48;;;;;;;16.63;7.15;;;;;;;0.09;67.31;98253.09;5009655;28;20049;-38
2023/11/26 03:56:14;;;;;;;19.60;6.88;;;;;;;0.08;67.55;98250.56;5029320;28;20117;-39
2023/11/26 03:58:40;;;;;;;15.90;7.13;;;;;;;-0.02;67.16;98252.41;5028522;28;20802;-37
2023/11/26 04:01:10;;;;;;;18.88;7.25;;;;;;;-0.12;67.68;98249.16;5027371;28;20132;-38
2023/11/26 04:03:36;;;;;;;17.17;6.80;;;;;;;-0.04;67.39;98246.47;5059118;28;20051;-37
2023/11/26 04:06:03;;;;;;;19.02;7.88;;;;;;;-0.19;67.61;98222.00;5012166;28;20057;-38
2023/11/26 04:08:29;;;;;;;21.58;7.93;;;;;;;0.03;67.83;98250.63;5026254;28;20052;-38
2023/11/26 04:10:55;;;;;;;18.88;7.00;;;;;;;0.05;67.57;98243.78;5011074;28;20080;-37
2023/11/26 04:13:24;;;;;;;20.25;7.40;;;;;;;-0.16;67.15;98216.84;5027306;28;20061;-38
2023/11/26 04:15:55;;;;;;;;;;;;;;;0.05;67.08;98253.16;5023744;28;20037;-37
2023/11/26 04:18:28;;;;;;;21.58;7.82;;;;;;;-0.09;67.17;98258.47;5026730;28;19975;-38
2023/11/26 04:20:55;;;;;;;17.40;7.05;;;;;;;-0.12;67.12;98261.06;5028027;28;20041;-39
2023/11/26 04:23:22;;;;;;;24.92;7.88;;;;;;;-0.08;66.98;98262.72;5026777;28;20033;-38
2023/11/26 04:25:50;;;;;;;15.43;6.78;;;;;;;-0.09;67.12;98266.97;5011462;28;20165;-38
2023/11/26 04:28:16;;;;;;;20.10;7.40;;;;;;;-0.04;67.40;98266.91;4995300;28;20060;-37
2023/11/26 04:30:42;;;;;;;23.20;6.88;;;;;;;0.06;67.39;98271.00;5027931;28;20593;-36
2023/11/26 04:33:08;;;;;;;14.85;6.78;;;;;;;-0.20;67.29;98217.75;5039935;28;20045;-38
2023/11/26 04:35:36;;;;;;;16.75;6.75;;;;;;;0.13;67.20;98267.50;5024776;28;20063;-38
2023/11/26 04:38:02;;;;;;;17.70;6.90;;;;;;;0.14;67.22;98273.44;5027555;28;20045;-35
2023/11/26 04:40:28;;;;;;;15.73;6.65;;;;;;;0.07;66.83;98267.59;4986111;28;20037;-38
2023/11/26 04:42:55;;;;;;;16.30;6.95;;;;;;;0.07;66.92;98269.28;5027566;28;20049;-36
2023/11/26 04:45:21;;;;;;;15.60;6.05;;;;;;;-0.17;67.26;98224.53;5027092;28;20049;-36
2023/11/26 04:47:47;;;;;;;16.70;6.07;;;;;;;-0.12;67.49;98233.81;5042414;28;20425;-37
2023/11/26 04:50:15;;;;;;;16.70;5.85;;;;;;;0.02;67.22;98254.03;5026553;28;20038;-37
2023/11/26 04:52:41;;;;;;;14.20;6.50;;;;;;;-0.01;67.47;98264.31;5027462;28;20583;-36
2023/11/26 04:55:08;;;;;;;12.25;5.45;;;;;;;-0.04;67.03;98270.31;5007554;28;20123;-37
2023/11/26 04:57:36;;;;;;;14.45;5.55;;;;;;;-0.01;67.13;98265.16;5023624;28;20535;-37
2023/11/26 05:00:03;;;;;;;13.57;5.63;;;;;;;-0.04;67.44;98261.78;5026608;28;20151;-37
2023/11/26 05:02:32;;;;;;;14.23;5.63;;;;;;;0.00;67.12;98256.59;5003541;28;20737;-36
2023/11/26 05:04:59;;;;;;;15.18;6.18;;;;;;;-0.04;67.12;98256.69;5025234;28;20128;-37
2023/11/26 05:07:25;;;;;;;13.15;6.35;;;;;;;0.02;67.10;98264.25;5027616;28;20493;-36
2023/11/26 05:09:51;;;;;;;13.30;5.93;;;;;;;0.00;66.89;98261.72;5026603;28;20052;-36
2023/11/26 05:12:17;;;;;;;13.38;6.07;;;;;;;0.02;67.19;98261.69;5025669;28;20045;-35
2023/11/26 05:14:43;;;;;;;14.57;6.22;;;;;;;0.00;67.32;98255.78;5023081;28;20090;-37
2023/11/26 05:17:10;;;;;;;15.00;6.40;;;;;;;0.03;67.53;98244.66;5022922;28;20049;-36
2023/11/26 05:19:36;;;;;;;17.75;6.35;;;;;;;0.03;67.18;98253.19;5027213;28;20044;-37
2023/11/26 05:22:03;;;;;;;22.17;7.50;;;;;;;0.02;66.99;98253.19;5024806;28;20034;-39
2023/11/26 05:24:29;;;;;;;19.20;7.43;;;;;;;0.00;67.56;98253.25;5008540;28;20048;-35
2023/11/26 05:26:55;;;;;;;16.30;7.60;;;;;;;-0.04;67.31;98247.31;5025845;28;20034;-36
2023/11/26 05:29:21;;;;;;;15.25;7.75;;;;;;;-0.02;67.11;98248.16;5026031;28;20075;-37
2023/11/26 05:31:47;;;;;;;18.13;8.00;;;;;;;0.01;66.95;98244.69;5024850;28;20037;-36
2023/11/26 05:34:13;;;;;;;19.08;7.97;;;;;;;-0.04;67.26;98237.09;5013838;28;20079;-38
2023/11/26 05:36:39;;;;;;;14.80;7.25;;;;;;;-0.01;66.94;98244.72;5024512;28;20501;-37
2023/11/26 05:39:06;;;;;;;17.05;7.88;;;;;;;-0.03;67.02;98236.22;5027053;28;20041;-38
2023/11/26 05:41:32;;;;;;;21.42;9.32;;;;;;;-0.04;67.09;98241.34;5040037;28;20581;-36
2023/11/26 05:43:58;;;;;;;18.48;8.32;;;;;;;-0.09;67.18;98243.97;5025907;28;20355;-37
2023/11/26 05:46:24;;;;;;;21.70;9.07;;;;;;;-0.23;67.32;98224.63;5025327;28;20041;-37
2023/11/26 05:48:51;;;;;;;19.42;8.57;;;;;;;-0.07;67.52;98242.25;5026324;28;20429;-38
2023/11/26 05:51:24;;;;;;;19.75;7.93;;;;;;;-0.09;67.21;98235.47;5024171;28;20033;-37
2023/11/26 05:53:50;;;;;;;18.70;7.55;;;;;;;-0.11;67.18;98237.22;5025592;28;20049;-36
2023/11/26 05:56:17;;;;;;;18.50;7.43;;;;;;;-0.13;67.25;98241.50;5021175;28;20136;-37
2023/11/26 05:58:43;;;;;;;15.25;7.30;;;;;;;-0.14;67.45;98250.88;5015128;28;20037;-38
2023/11/26 06:01:10;;;;;;;15.90;7.18;;;;;;;-0.16;66.98;98242.38;5035757;28;20048;-38
2023/11/26 06:03:37;;;;;;;18.35;7.22;;;;;;;-0.14;67.42;98244.91;5035649;28;20091;-36
2023/11/26 06:06:04;;;;;;;17.40;6.97;;;;;;;-0.16;67.24;98250.03;5018453;28;20771;-39
2023/11/26 06:08:30;;;;;;;18.45;6.82;;;;;;;-0.16;67.17;98249.22;5015300;28;20044;-37
2023/11/26 06:10:56;;;;;;;18.98;7.63;;;;;;;-0.10;67.20;98249.94;5009491;28;20049;-37
2023/11/26 06:13:23;;;;;;;15.60;6.93;;;;;;;-0.07;67.12;98255.03;4993041;28;20103;-36
2023/11/26 06:15:49;;;;;;;20.88;8.07;;;;;;;-0.10;67.13;98260.16;5042915;28;20052;-37
2023/11/26 06:18:16;;;;;;;19.65;7.43;;;;;;;-0.11;66.92;98268.72;5026750;28;20124;-37
2023/11/26 06:20:43;;;;;;;14.35;6.38;;;;;;;-0.08;67.38;98255.91;5009148;28;20578;-37
2023/11/26 06:23:09;;;;;;;14.90;6.88;;;;;;;-0.05;67.11;98245.63;5025751;28;20041;-36
2023/11/26 06:25:36;;;;;;;19.27;7.00;;;;;;;-0.05;67.06;98255.00;5034828;28;20040;-37
2023/11/26 06:28:02;;;;;;;17.65;7.43;;;;;;;-0.03;67.16;98251.56;5036065;28;20131;-37
2023/11/26 06:30:29;;;;;;;17.08;7.68;;;;;;;0.00;67.26;98253.25;5012802;28;20103;-36
2023/11/26 06:32:55;;;;;;;18.95;7.45;;;;;;;0.06;67.41;98258.22;5023312;28;20523;-37
2023/11/26 06:35:21;;;;;;;20.95;7.88;;;;;;;0.09;66.87;98254.78;5041255;28;20033;-39
2023/11/26 06:37:47;;;;;;;18.52;7.35;;;;;;;0.12;66.85;98247.91;5025079;28;20417;-39
2023/11/26 06:40:14;;;;;;;18.98;7.30;;;;;;;0.15;66.93;98255.56;5024936;28;20123;-39
2023/11/26 06:42:43;;;;;;;21.38;8.00;;;;;;;0.15;66.84;98257.25;5026528;28;20184;-39
2023/11/26 06:45:10;;;;;;;25.95;8.52;;;;;;;0.11;66.68;98259.00;5020789;28;20048;-38
2023/11/26 06:47:37;;;;;;;21.15;8.90;;;;;;;0.15;66.87;98247.03;5009113;28;20079;-39
2023/11/26 06:50:03;;;;;;;20.73;8.25;;;;;;;0.17;66.37;98251.25;5025803;28;20045;-39
2023/11/26 06:52:32;;;;;;;20.85;8.70;;;;;;;0.18;66.59;98258.03;5025774;28;20045;-38
2023/11/26 06:54:59;;;;;;;21.15;8.30;;;;;;;0.22;66.52;98259.69;5024828;28;20747;-41
2023/11/26 06:57:24;;;;;;;17.67;7.88;;;;;;;0.22;66.53;98254.56;5023294;28;20083;-40
2023/11/26 06:59:50;;;;;;;30.23;9.55;;;;;;;0.26;66.31;98257.94;5002357;28;20610;-39
2023/11/26 07:02:19;;;;;;;22.83;8.32;;;;;;;0.28;66.29;98262.13;5020871;28;20065;-41
2023/11/26 07:04:45;;;;;;;22.38;8.48;;;;;;;0.16;65.99;98228.28;4992649;28;20096;-40
2023/11/26 07:07:11;;;;;;;19.40;8.15;;;;;;;0.40;66.45;98256.84;5017716;28;20041;-40
2023/11/26 07:09:40;;;;;;;20.50;8.75;;;;;;;0.35;65.95;98260.34;5039450;28;20041;-40
2023/11/26 07:12:06;;;;;;;22.50;9.43;;;;;;;0.31;66.08;98257.00;5014744;28;20073;-40
2023/11/26 07:14:32;;;;;;;22.55;9.07;;;;;;;0.29;65.74;98263.84;5019251;28;20056;-39
2023/11/26 07:16:58;;;;;;;24.00;9.77;;;;;;;0.27;65.80;98259.59;5018743;28;20064;-41
2023/11/26 07:19:24;;;;;;;23.02;9.43;;;;;;;0.27;65.97;98254.50;5021226;28;20037;-41
2023/11/26 07:21:50;;;;;;;25.77;9.35;;;;;;;0.32;66.16;98258.66;5020671;28;20038;-39
2023/11/26 07:24:16;;;;;;;20.58;8.60;;;;;;;0.45;65.86;98250.78;5021883;28;20056;-39
2023/11/26 07:26:42;;;;;;;22.73;9.40;;;;;;;0.55;65.67;98265.94;5018021;28;20046;-39
2023/11/26 07:29:08;;;;;;;20.98;8.75;;;;;;;0.40;65.45;98230.44;5019184;28;20083;-39
2023/11/26 07:31:34;;;;;;;22.50;9.60;;;;;;;0.71;65.56;98275.03;5005390;28;20034;-40
2023/11/26 07:34:00;;;;;;;23.95;8.68;;;;;;;0.76;65.01;98267.28;5021085;28;20394;-39
2023/11/26 07:36:27;;;;;;;23.23;8.60;;;;;;;0.76;65.00;98280.94;5018416;28;20044;-40
2023/11/26 07:38:55;;;;;;;25.80;9.63;;;;;;;0.76;65.03;98274.97;5003501;28;20069;-41
2023/11/26 07:41:21;;;;;;;27.48;10.23;;;;;;;0.62;64.79;98247.09;4976648;28;20045;-40
2023/11/26 07:43:52;;;;;;;22.20;9.55;;;;;;;0.77;64.58;98279.22;5026254;28;20064;-40
2023/11/26 07:46:19;;;;;;;25.17;9.77;;;;;;;0.75;64.93;98270.72;5012362;28;20084;-39
2023/11/26 07:48:46;;;;;;;24.95;9.70;;;;;;;0.75;64.48;98274.13;5029226;28;20520;-39
2023/11/26 07:51:13;;;;;;;23.05;9.25;;;;;;;0.80;64.74;98271.47;5027514;28;20059;-40
2023/11/26 07:53:40;;;;;;;25.45;10.20;;;;;;;0.84;64.26;98279.06;5027257;28;20037;-38
2023/11/26 07:56:10;;;;;;;23.40;9.75;;;;;;;0.91;64.24;98278.94;5011107;28;20041;-38
2023/11/26 07:58:36;;;;;;;26.10;9.80;;;;;;;0.97;64.52;98274.56;5027772;28;20042;-40
2023/11/26 08:01:03;;;;;;;24.20;10.60;;;;;;;0.99;64.16;98277.09;5027712;28;20492;-39
2023/11/26 08:03:33;;;;;;;25.42;9.95;;;;;;;1.04;64.28;98276.16;5022653;28;20041;-40
2023/11/26 08:06:02;;;;;;;24.30;9.52;;;;;;;0.98;63.93;98278.81;5018328;28;20044;-39
2023/11/26 08:08:35;;;;;;;26.83;9.55;;;;;;;0.85;64.21;98247.50;5027547;28;20041;-41
2023/11/26 08:11:03;;;;;;;23.55;9.25;;;;;;;1.05;63.91;98275.25;5026567;28;20129;-40
2023/11/26 08:13:31;;;;;;;23.17;10.38;;;;;;;1.08;63.95;98280.34;5042875;28;20049;-40
2023/11/26 08:15:57;;;;;;;26.52;9.95;;;;;;;0.95;64.02;98260.94;5023093;28;20038;-41
2023/11/26 08:18:24;;;;;;;21.38;9.55;;;;;;;1.07;63.77;98286.31;5027897;28;20045;-39
2023/11/26 08:20:54;;;;;;;24.80;9.65;;;;;;;1.09;64.05;98279.47;5028880;28;20045;-39
2023/11/26 08:23:20;;;;;;;21.88;9.35;;;;;;;1.15;64.26;98269.09;5027367;28;20052;-40
2023/11/26 08:25:50;;;;;;;25.27;9.65;;;;;;;1.20;64.00;98264.72;5015573;28;20063;-40
2023/11/26 08:28:16;;;;;;;30.77;9.77;;;;;;;1.26;63.94;98272.28;5029340;28;20041;-39
2023/11/26 08:30:44;;;;;;;25.80;9.45;;;;;;;1.35;63.69;98267.88;5012722;28;20203;-40
2023/11/26 08:33:17;;;;;;;25.73;10.05;;;;;;;1.44;63.86;98260.00;5023953;28;20045;-44
2023/11/26 08:35:43;;;;;;;21.73;9.38;;;;;;;1.46;63.73;98266.78;5025785;28;20125;-41
2023/11/26 08:38:10;;;;;;;23.75;10.05;;;;;;;1.61;63.47;98271.56;5027831;28;20045;-39
2023/11/26 08:40:39;;;;;;;28.55;11.35;;;;;;;1.68;63.35;98268.00;5027829;28;20065;-41
2023/11/26 08:43:14;;;;;;;25.17;10.57;;;;;;;1.69;63.16;98256.88;5027863;28;20041;-40
2023/11/26 08:45:40;;;;;;;22.92;9.48;;;;;;;1.70;63.02;98261.13;5026643;28;20040;-40
2023/11/26 08:48:08;;;;;;;27.08;11.60;;;;;;;1.74;63.12;98256.78;5012994;28;20041;-40
2023/11/26 08:50:34;;;;;;;27.42;11.05;;;;;;;1.78;62.60;98247.31;5026679;28;20349;-40
2023/11/26 08:53:05;;;;;;;30.98;11.07;;;;;;;1.54;62.39;98218.78;5025106;28;20136;-40
2023/11/26 08:55:34;;;;;;;25.42;9.90;;;;;;;1.66;62.63;98245.88;5026880;28;20120;-41
2023/11/26 08:58:00;;;;;;;23.80;10.07;;;;;;;1.62;62.75;98236.56;5026772;28;20132;-42
2023/11/26 09:00:27;;;;;;;29.02;10.13;;;;;;;1.59;62.89;98234.91;5026675;28;20402;-41
2023/11/26 09:02:53;;;;;;;23.95;9.90;;;;;;;1.60;62.87;98230.63;4999734;28;20041;-40
2023/11/26 09:05:19;;;;;;;25.40;11.73;;;;;;;1.45;62.71;98221.56;5026861;28;20045;-41
2023/11/26 09:07:45;;;;;;;25.52;10.95;;;;;;;1.50;62.80;98222.31;5027095;28;20041;-41
2023/11/26 09:10:13;;;;;;;25.92;10.30;;;;;;;1.23;62.78;98164.00;5027586;28;20038;-39
2023/11/26 09:12:39;;;;;;;26.70;10.48;;;;;;;1.54;62.82;98217.94;5026606;28;20048;-41
2023/11/26 09:15:07;;;;;;;27.83;11.07;;;;;;;1.42;62.81;98192.59;5010269;28;20041;-40
2023/11/26 09:17:34;;;;;;;26.10;10.38;;;;;;;1.49;62.42;98214.66;5007629;28;20775;-41
2023/11/26 09:20:00;;;;;;;23.33;9.80;;;;;;;1.42;62.57;98213.09;5011010;28;20087;-42
2023/11/26 09:22:26;;;;;;;26.45;10.38;;;;;;;1.43;62.56;98201.97;5026101;28;20322;-41
2023/11/26 09:24:52;;;;;;;24.75;11.25;;;;;;;1.43;62.58;98194.28;5026012;28;20428;-40
2023/11/26 09:27:18;;;;;;;24.60;9.73;;;;;;;1.52;62.56;98205.16;5059677;28;20029;-41
2023/11/26 09:29:45;;;;;;;26.80;9.77;;;;;;;1.54;62.77;98194.91;5027418;28;20144;-40
2023/11/26 09:32:11;;;;;;;23.80;10.00;;;;;;;1.60;62.42;98207.56;5026148;28;20052;-39
2023/11/26 09:34:37;;;;;;;23.70;9.70;;;;;;;1.58;62.44;98202.47;5007352;28;20048;-40
2023/11/26 09:37:06;;;;;;;22.13;10.68;;;;;;;1.54;62.50;98200.88;5042986;28;20073;-41
2023/11/26 09:39:33;;;;;;;26.83;9.65;;;;;;;1.44;62.19;98190.84;4998975;28;20539;-41
2023/11/26 09:42:03;;;;;;;21.40;9.77;;;;;;;1.40;62.28;98202.91;5026902;28;20131;-41
2023/11/26 09:44:30;;;;;;;27.88;10.07;;;;;;;1.35;62.15;98209.84;5010223;28;20072;-42
2023/11/26 09:46:56;;;;;;;24.60;10.15;;;;;;;1.35;62.22;98206.44;5025588;28;20041;-42
2023/11/26 09:49:23;;;;;;;24.38;9.10;;;;;;;1.14;62.46;98171.88;5026077;28;20077;-41
2023/11/26 09:51:54;;;;;;;20.75;9.23;;;;;;;1.33;62.47;98198.78;5009336;28;20104;-41
2023/11/26 09:54:21;;;;;;;21.95;9.52;;;;;;;1.31;62.64;98204.81;5025301;28;20056;-40
2023/11/26 09:56:47;;;;;;;20.92;9.07;;;;;;;1.28;62.45;98198.88;5026378;28;20127;-42
2023/11/26 09:59:26;;;;;;;23.83;10.15;;;;;;;1.11;62.33;98169.38;5025585;28;20068;-41
2023/11/26 10:01:53;;;;;;;21.60;9.18;;;;;;;1.14;62.45;98177.84;5009769;28;20134;-40
2023/11/26 10:04:22;;;;;;;23.58;9.77;;;;;;;1.36;62.20;98203.81;5041088;28;20513;-40
2023/11/26 10:06:55;;;;;;;27.10;10.93;;;;;;;1.39;62.47;98206.31;5025522;28;20048;-41
2023/11/26 10:09:22;;;;;;;20.23;9.05;;;;;;;1.37;62.28;98207.22;5018161;28;20045;-41
2023/11/26 10:11:48;;;;;;;21.08;8.50;;;;;;;1.32;62.58;98204.75;5026437;28;20048;-40
2023/11/26 10:14:21;;;;;;;24.45;9.63;;;;;;;1.26;62.30;98207.44;5021693;28;20437;-39
2023/11/26 10:16:48;;;;;;;22.40;9.18;;;;;;;1.29;62.84;98204.84;5017395;28;20038;-41
2023/11/26 10:19:27;;;;;;;23.40;9.48;;;;;;;1.39;62.86;98211.44;5024067;28;20038;-40
2023/11/26 10:21:54;;;;;;;21.95;9.63;;;;;;;1.41;62.36;98203.75;5010722;28;20477;-40
2023/11/26 10:24:22;;;;;;;29.58;10.70;;;;;;;1.34;62.15;98210.69;5041109;28;20116;-41
2023/11/26 10:26:53;;;;;;;25.70;9.82;;;;;;;1.35;62.41;98199.59;5009442;28;20068;-41
2023/11/26 10:29:23;;;;;;;24.52;10.68;;;;;;;1.43;62.54;98189.16;5025182;28;20883;-41
2023/11/26 10:32:07;;;;;;;22.95;10.00;;;;;;;1.51;62.59;98185.59;5023751;28;20056;-40
2023/11/26 10:34:35;;;;;;;21.38;9.95;;;;;;;1.54;62.40;98190.63;5025490;28;20037;-40
2023/11/26 10:37:21;;;;;;;19.50;8.40;;;;;;;1.54;62.36;98179.53;5023689;28;20046;-40
2023/11/26 10:39:56;;;;;;;23.20;8.10;;;;;;;1.55;61.98;98173.53;5024737;28;20052;-41
2023/11/26 10:42:26;;;;;;;19.63;8.73;;;;;;;1.51;61.86;98169.38;5025246;28;20080;-40
2023/11/26 10:44:53;;;;;;;22.02;8.35;;;;;;;1.54;61.96;98162.47;5025640;28;20124;-42
2023/11/26 10:47:23;;;;;;;21.17;8.55;;;;;;;1.55;61.71;98166.72;5021743;28;20064;-39
2023/11/26 10:49:52;;;;;;;21.33;8.93;;;;;;;1.51;62.03;98161.69;5043715;28;20070;-41
2023/11/26 10:52:50;;;;;;;25.20;8.93;;;;;;;1.52;62.07;98155.66;4996194;28;20037;-40
2023/11/26 10:55:30;;;;;;;21.17;9.52;;;;;;;1.54;61.96;98156.50;5016253;28;20049;-41
2023/11/26 10:58:00;;;;;;;18.92;8.70;;;;;;;1.54;62.15;98164.16;5022791;28;20048;-40
2023/11/26 11:00:29;;;;;;;17.48;7.78;;;;;;;1.23;62.07;98123.06;4991909;28;20128;-40
2023/11/26 11:02:56;;;;;;;18.17;8.05;;;;;;;1.06;61.69;98092.72;5024383;28;20047;-40
2023/11/26 11:05:22;;;;;;;20.45;8.68;;;;;;;1.47;62.30;98158.34;5024730;28;20048;-40
2023/11/26 11:07:48;;;;;;;20.90;8.90;;;;;;;1.37;62.08;98117.63;5051701;28;20119;-47
2023/11/26 11:10:21;;;;;;;21.05;9.20;;;;;;;1.67;62.01;98150.22;5025234;28;20045;-40
2023/11/26 11:12:53;;;;;;;22.80;9.23;;;;;;;1.76;61.96;98138.91;5036169;28;20116;-40
2023/11/26 11:15:20;;;;;;;21.15;8.93;;;;;;;1.65;61.94;98121.22;5007264;28;20052;-40
2023/11/26 11:17:46;;;;;;;21.02;8.82;;;;;;;1.85;61.80;98134.41;5028572;28;20041;-41
2023/11/26 11:20:14;;;;;;;19.48;8.60;;;;;;;1.89;61.49;98138.56;5028464;28;20045;-39
2023/11/26 11:22:44;;;;;;;19.23;7.18;;;;;;;1.88;61.03;98130.94;5028437;28;20076;-38
2023/11/26 11:25:11;;;;;;;17.80;7.85;;;;;;;1.80;60.92;98123.41;5029344;28;20041;-40
2023/11/26 11:27:49;;;;;;;18.17;8.82;;;;;;;1.82;61.06;98120.84;5029244;28;20469;-39
2023/11/26 11:30:43;;;;;;;18.48;7.40;;;;;;;1.83;60.98;98123.38;5028936;28;20467;-42
2023/11/26 11:33:11;;;;;;;20.92;9.18;;;;;;;1.84;60.60;98113.94;5027205;28;20033;-41
2023/11/26 11:35:45;;;;;;;25.65;8.45;;;;;;;1.74;60.71;98095.38;5007805;28;20058;-39